sensor_id;sensor_type;location;lat;lon;timestamp;P1;durP1;ratioP1;P2;durP2;ratioP2
10902;SDS011;5504;47.312;11.060;2022-08-21T00:00:52;4.03;;;3.60;;
10902;SDS011;5504;47.312;11.060;2022-08-21T00:03:18;4.13;;;3.30;;
10902;SDS011;5504;47.312;11.060;2022-08-21T00:05:45;4.20;;;3.23;;
10902;SDS011;5504;47.312;11.060;2022-08-21T00:08:17;3.13;;;2.90;;
10902;SDS011;5504;47.312;11.060;2022-08-21T00:10:44;3.17;;;2.87;;
10902;SDS011;5504;47.312;11.060;2022-08-21T00:13:11;3.73;;;3.17;;
10902;SDS011;5504;47.312;11.060;2022-08-21T00:15:38;3.33;;;2.90;;
10902;SDS011;5504;47.312;11.060;2022-08-21T00:18:06;4.73;;;3.10;;
10902;SDS011;5504;47.312;11.060;2022-08-21T00:20:33;3.87;;;3.07;;
10902;SDS011;5504;47.312;11.060;2022-08-21T00:23:00;3.27;;;2.83;;
10902;SDS011;5504;47.312;11.060;2022-08-21T00:25:26;3.37;;;3.07;;
10902;SDS011;5504;47.312;11.060;2022-08-21T00:27:52;4.70;;;2.80;;
10902;SDS011;5504;47.312;11.060;2022-08-21T00:30:19;3.10;;;2.60;;
10902;SDS011;5504;47.312;11.060;2022-08-21T00:32:47;2.93;;;2.60;;
10902;SDS011;5504;47.312;11.060;2022-08-21T00:35:13;3.83;;;2.90;;
10902;SDS011;5504;47.312;11.060;2022-08-21T00:37:41;3.07;;;2.40;;
10902;SDS011;5504;47.312;11.060;2022-08-21T00:40:09;3.40;;;2.37;;
10902;SDS011;5504;47.312;11.060;2022-08-21T00:42:37;3.70;;;2.47;;
10902;SDS011;5504;47.312;11.060;2022-08-21T00:45:04;2.67;;;2.37;;
10902;SDS011;5504;47.312;11.060;2022-08-21T00:47:30;3.63;;;2.23;;
10902;SDS011;5504;47.312;11.060;2022-08-21T00:49:56;1.90;;;1.80;;
10902;SDS011;5504;47.312;11.060;2022-08-21T00:52:23;3.10;;;2.37;;
10902;SDS011;5504;47.312;11.060;2022-08-21T00:54:53;2.43;;;2.23;;
10902;SDS011;5504;47.312;11.060;2022-08-21T00:57:22;3.73;;;2.40;;
10902;SDS011;5504;47.312;11.060;2022-08-21T00:59:56;3.13;;;2.43;;
10902;SDS011;5504;47.312;11.060;2022-08-21T01:02:23;2.57;;;2.10;;
10902;SDS011;5504;47.312;11.060;2022-08-21T01:04:49;2.30;;;1.80;;
10902;SDS011;5504;47.312;11.060;2022-08-21T01:07:15;2.90;;;2.30;;
10902;SDS011;5504;47.312;11.060;2022-08-21T01:09:42;3.77;;;2.40;;
10902;SDS011;5504;47.312;11.060;2022-08-21T01:12:09;3.40;;;2.30;;
10902;SDS011;5504;47.312;11.060;2022-08-21T01:14:35;2.30;;;2.10;;
10902;SDS011;5504;47.312;11.060;2022-08-21T01:17:02;2.90;;;2.10;;
10902;SDS011;5504;47.312;11.060;2022-08-21T01:19:28;2.87;;;2.10;;
10902;SDS011;5504;47.312;11.060;2022-08-21T01:21:55;3.63;;;2.43;;
10902;SDS011;5504;47.312;11.060;2022-08-21T01:24:21;3.67;;;2.10;;
10902;SDS011;5504;47.312;11.060;2022-08-21T01:26:48;3.60;;;2.60;;
10902;SDS011;5504;47.312;11.060;2022-08-21T01:32:04;4.00;;;2.30;;
10902;SDS011;5504;47.312;11.060;2022-08-21T01:34:32;3.87;;;2.07;;
10902;SDS011;5504;47.312;11.060;2022-08-21T01:37:00;3.73;;;2.10;;
10902;SDS011;5504;47.312;11.060;2022-08-21T01:39:26;3.10;;;2.00;;
10902;SDS011;5504;47.312;11.060;2022-08-21T01:41:52;2.50;;;2.30;;
10902;SDS011;5504;47.312;11.060;2022-08-21T01:44:20;5.20;;;2.37;;
10902;SDS011;5504;47.312;11.060;2022-08-21T01:46:46;2.20;;;2.10;;
10902;SDS011;5504;47.312;11.060;2022-08-21T01:49:13;3.00;;;2.23;;
10902;SDS011;5504;47.312;11.060;2022-08-21T01:51:40;2.57;;;2.37;;
10902;SDS011;5504;47.312;11.060;2022-08-21T01:54:06;3.60;;;2.40;;
10902;SDS011;5504;47.312;11.060;2022-08-21T01:56:39;3.10;;;2.20;;
10902;SDS011;5504;47.312;11.060;2022-08-21T01:59:07;3.23;;;2.13;;
10902;SDS011;5504;47.312;11.060;2022-08-21T02:01:33;4.00;;;2.50;;
10902;SDS011;5504;47.312;11.060;2022-08-21T02:03:58;2.97;;;2.67;;
10902;SDS011;5504;47.312;11.060;2022-08-21T02:06:25;4.17;;;2.57;;
10902;SDS011;5504;47.312;11.060;2022-08-21T02:08:51;3.57;;;2.40;;
10902;SDS011;5504;47.312;11.060;2022-08-21T02:11:17;4.03;;;2.50;;
10902;SDS011;5504;47.312;11.060;2022-08-21T02:13:43;2.67;;;2.40;;
10902;SDS011;5504;47.312;11.060;2022-08-21T02:16:09;4.10;;;2.60;;
10902;SDS011;5504;47.312;11.060;2022-08-21T02:18:35;3.27;;;2.30;;
10902;SDS011;5504;47.312;11.060;2022-08-21T02:21:02;3.60;;;2.30;;
10902;SDS011;5504;47.312;11.060;2022-08-21T02:23:28;2.70;;;2.50;;
10902;SDS011;5504;47.312;11.060;2022-08-21T02:25:56;3.10;;;2.57;;
10902;SDS011;5504;47.312;11.060;2022-08-21T02:28:22;3.20;;;2.50;;
10902;SDS011;5504;47.312;11.060;2022-08-21T02:30:49;3.90;;;2.70;;
10902;SDS011;5504;47.312;11.060;2022-08-21T02:33:15;4.83;;;2.53;;
10902;SDS011;5504;47.312;11.060;2022-08-21T02:35:43;3.23;;;2.67;;
10902;SDS011;5504;47.312;11.060;2022-08-21T02:38:12;3.43;;;2.40;;
10902;SDS011;5504;47.312;11.060;2022-08-21T02:40:39;4.17;;;2.73;;
10902;SDS011;5504;47.312;11.060;2022-08-21T02:43:07;3.10;;;2.43;;
10902;SDS011;5504;47.312;11.060;2022-08-21T02:45:33;3.50;;;3.00;;
10902;SDS011;5504;47.312;11.060;2022-08-21T02:48:04;4.17;;;2.50;;
10902;SDS011;5504;47.312;11.060;2022-08-21T02:50:32;4.00;;;2.57;;
10902;SDS011;5504;47.312;11.060;2022-08-21T02:53:01;2.70;;;2.43;;
10902;SDS011;5504;47.312;11.060;2022-08-21T02:55:29;3.57;;;2.50;;
10902;SDS011;5504;47.312;11.060;2022-08-21T02:57:57;2.93;;;2.60;;
10902;SDS011;5504;47.312;11.060;2022-08-21T03:00:24;3.20;;;2.50;;
10902;SDS011;5504;47.312;11.060;2022-08-21T03:02:52;2.90;;;2.40;;
10902;SDS011;5504;47.312;11.060;2022-08-21T03:05:21;4.50;;;2.60;;
10902;SDS011;5504;47.312;11.060;2022-08-21T03:07:47;4.17;;;2.80;;
10902;SDS011;5504;47.312;11.060;2022-08-21T03:10:14;3.80;;;2.83;;
10902;SDS011;5504;47.312;11.060;2022-08-21T03:12:40;3.20;;;2.90;;
10902;SDS011;5504;47.312;11.060;2022-08-21T03:15:12;3.27;;;2.97;;
10902;SDS011;5504;47.312;11.060;2022-08-21T03:17:39;3.70;;;2.73;;
10902;SDS011;5504;47.312;11.060;2022-08-21T03:20:06;4.23;;;2.57;;
10902;SDS011;5504;47.312;11.060;2022-08-21T03:22:33;3.00;;;2.40;;
10902;SDS011;5504;47.312;11.060;2022-08-21T03:24:59;4.73;;;2.30;;
10902;SDS011;5504;47.312;11.060;2022-08-21T03:27:26;4.03;;;2.40;;
10902;SDS011;5504;47.312;11.060;2022-08-21T03:29:54;2.70;;;2.47;;
10902;SDS011;5504;47.312;11.060;2022-08-21T03:32:20;4.17;;;2.30;;
10902;SDS011;5504;47.312;11.060;2022-08-21T03:34:46;2.47;;;2.27;;
10902;SDS011;5504;47.312;11.060;2022-08-21T03:37:12;4.50;;;2.50;;
10902;SDS011;5504;47.312;11.060;2022-08-21T03:39:38;3.07;;;2.70;;
10902;SDS011;5504;47.312;11.060;2022-08-21T03:42:04;3.90;;;2.90;;
10902;SDS011;5504;47.312;11.060;2022-08-21T03:44:31;3.23;;;2.93;;
10902;SDS011;5504;47.312;11.060;2022-08-21T03:46:57;3.00;;;2.43;;
10902;SDS011;5504;47.312;11.060;2022-08-21T03:49:24;2.70;;;2.30;;
10902;SDS011;5504;47.312;11.060;2022-08-21T03:51:51;3.17;;;2.40;;
10902;SDS011;5504;47.312;11.060;2022-08-21T03:54:16;4.10;;;2.50;;
10902;SDS011;5504;47.312;11.060;2022-08-21T03:56:42;3.17;;;2.27;;
10902;SDS011;5504;47.312;11.060;2022-08-21T03:59:08;3.87;;;2.50;;
10902;SDS011;5504;47.312;11.060;2022-08-21T04:01:34;2.73;;;2.23;;
10902;SDS011;5504;47.312;11.060;2022-08-21T04:04:01;3.13;;;2.67;;
10902;SDS011;5504;47.312;11.060;2022-08-21T04:06:27;2.30;;;2.10;;
10902;SDS011;5504;47.312;11.060;2022-08-21T04:08:53;2.10;;;2.00;;
10902;SDS011;5504;47.312;11.060;2022-08-21T04:11:19;2.83;;;2.63;;
10902;SDS011;5504;47.312;11.060;2022-08-21T04:13:45;2.30;;;2.10;;
10902;SDS011;5504;47.312;11.060;2022-08-21T04:16:11;3.10;;;2.60;;
10902;SDS011;5504;47.312;11.060;2022-08-21T04:18:38;2.53;;;1.97;;
10902;SDS011;5504;47.312;11.060;2022-08-21T04:21:03;2.50;;;2.30;;
10902;SDS011;5504;47.312;11.060;2022-08-21T04:23:30;3.97;;;2.70;;
10902;SDS011;5504;47.312;11.060;2022-08-21T04:25:56;2.93;;;2.57;;
10902;SDS011;5504;47.312;11.060;2022-08-21T04:28:23;3.70;;;2.60;;
10902;SDS011;5504;47.312;11.060;2022-08-21T04:30:52;3.60;;;2.60;;
10902;SDS011;5504;47.312;11.060;2022-08-21T04:33:19;3.10;;;2.60;;
10902;SDS011;5504;47.312;11.060;2022-08-21T04:35:46;2.77;;;2.57;;
10902;SDS011;5504;47.312;11.060;2022-08-21T04:38:13;3.47;;;2.60;;
10902;SDS011;5504;47.312;11.060;2022-08-21T04:40:39;2.93;;;2.40;;
10902;SDS011;5504;47.312;11.060;2022-08-21T04:43:06;3.20;;;2.70;;
10902;SDS011;5504;47.312;11.060;2022-08-21T04:45:37;2.97;;;2.67;;
10902;SDS011;5504;47.312;11.060;2022-08-21T04:48:05;2.70;;;2.40;;
10902;SDS011;5504;47.312;11.060;2022-08-21T04:50:47;2.70;;;2.50;;
10902;SDS011;5504;47.312;11.060;2022-08-21T04:53:38;3.50;;;2.53;;
10902;SDS011;5504;47.312;11.060;2022-08-21T04:56:11;2.80;;;2.60;;
10902;SDS011;5504;47.312;11.060;2022-08-21T04:58:41;3.00;;;2.50;;
10902;SDS011;5504;47.312;11.060;2022-08-21T05:01:08;4.00;;;3.10;;
10902;SDS011;5504;47.312;11.060;2022-08-21T05:03:41;3.27;;;3.00;;
10902;SDS011;5504;47.312;11.060;2022-08-21T05:06:08;3.37;;;3.00;;
10902;SDS011;5504;47.312;11.060;2022-08-21T05:08:36;4.23;;;3.10;;
10902;SDS011;5504;47.312;11.060;2022-08-21T05:11:04;4.23;;;2.90;;
10902;SDS011;5504;47.312;11.060;2022-08-21T05:13:30;2.60;;;2.40;;
10902;SDS011;5504;47.312;11.060;2022-08-21T05:15:56;3.97;;;2.67;;
10902;SDS011;5504;47.312;11.060;2022-08-21T05:18:23;5.10;;;2.77;;
10902;SDS011;5504;47.312;11.060;2022-08-21T05:20:49;3.10;;;2.90;;
10902;SDS011;5504;47.312;11.060;2022-08-21T05:23:15;3.17;;;2.87;;
10902;SDS011;5504;47.312;11.060;2022-08-21T05:25:42;2.97;;;2.77;;
10902;SDS011;5504;47.312;11.060;2022-08-21T05:28:08;3.43;;;3.00;;
10902;SDS011;5504;47.312;11.060;2022-08-21T05:30:35;3.80;;;3.30;;
10902;SDS011;5504;47.312;11.060;2022-08-21T05:33:02;4.27;;;3.30;;
10902;SDS011;5504;47.312;11.060;2022-08-21T05:35:30;3.90;;;3.50;;
10902;SDS011;5504;47.312;11.060;2022-08-21T05:37:57;4.50;;;3.40;;
10902;SDS011;5504;47.312;11.060;2022-08-21T05:40:24;3.30;;;3.10;;
10902;SDS011;5504;47.312;11.060;2022-08-21T05:42:51;3.90;;;3.50;;
10902;SDS011;5504;47.312;11.060;2022-08-21T05:45:17;4.33;;;3.93;;
10902;SDS011;5504;47.312;11.060;2022-08-21T05:47:43;8.13;;;4.10;;
10902;SDS011;5504;47.312;11.060;2022-08-21T05:50:09;4.73;;;4.33;;
10902;SDS011;5504;47.312;11.060;2022-08-21T05:52:34;4.13;;;3.83;;
10902;SDS011;5504;47.312;11.060;2022-08-21T05:55:00;5.03;;;3.83;;
10902;SDS011;5504;47.312;11.060;2022-08-21T05:57:26;4.57;;;3.70;;
10902;SDS011;5504;47.312;11.060;2022-08-21T05:59:52;4.07;;;3.73;;
10902;SDS011;5504;47.312;11.060;2022-08-21T06:02:18;4.50;;;3.53;;
10902;SDS011;5504;47.312;11.060;2022-08-21T06:04:45;3.93;;;3.53;;
10902;SDS011;5504;47.312;11.060;2022-08-21T06:07:12;3.53;;;3.33;;
10902;SDS011;5504;47.312;11.060;2022-08-21T06:09:38;5.67;;;3.60;;
10902;SDS011;5504;47.312;11.060;2022-08-21T06:12:07;3.70;;;3.40;;
10902;SDS011;5504;47.312;11.060;2022-08-21T06:14:35;3.97;;;3.57;;
10902;SDS011;5504;47.312;11.060;2022-08-21T06:17:06;4.23;;;3.93;;
10902;SDS011;5504;47.312;11.060;2022-08-21T06:19:33;4.67;;;3.60;;
10902;SDS011;5504;47.312;11.060;2022-08-21T06:21:59;5.20;;;3.43;;
10902;SDS011;5504;47.312;11.060;2022-08-21T06:24:25;4.07;;;3.40;;
10902;SDS011;5504;47.312;11.060;2022-08-21T06:26:52;3.70;;;3.40;;
10902;SDS011;5504;47.312;11.060;2022-08-21T06:29:17;4.07;;;3.67;;
10902;SDS011;5504;47.312;11.060;2022-08-21T06:31:45;4.17;;;3.77;;
10902;SDS011;5504;47.312;11.060;2022-08-21T06:34:11;4.33;;;3.30;;
10902;SDS011;5504;47.312;11.060;2022-08-21T06:36:38;3.77;;;3.03;;
10902;SDS011;5504;47.312;11.060;2022-08-21T06:39:04;3.57;;;3.27;;
10902;SDS011;5504;47.312;11.060;2022-08-21T06:41:30;3.30;;;3.00;;
10902;SDS011;5504;47.312;11.060;2022-08-21T06:43:56;5.57;;;3.10;;
10902;SDS011;5504;47.312;11.060;2022-08-21T06:46:23;3.73;;;3.43;;
10902;SDS011;5504;47.312;11.060;2022-08-21T06:48:51;3.00;;;2.70;;
10902;SDS011;5504;47.312;11.060;2022-08-21T06:51:17;3.20;;;2.70;;
10902;SDS011;5504;47.312;11.060;2022-08-21T06:53:43;3.20;;;2.90;;
10902;SDS011;5504;47.312;11.060;2022-08-21T06:56:09;3.63;;;2.30;;
10902;SDS011;5504;47.312;11.060;2022-08-21T06:58:35;2.77;;;2.20;;
10902;SDS011;5504;47.312;11.060;2022-08-21T07:01:01;3.40;;;2.20;;
10902;SDS011;5504;47.312;11.060;2022-08-21T07:05:55;3.65;;;2.05;;
10902;SDS011;5504;47.312;11.060;2022-08-21T07:08:23;3.15;;;2.08;;
10902;SDS011;5504;47.312;11.060;2022-08-21T07:10:51;1.67;;;1.58;;
10902;SDS011;5504;47.312;11.060;2022-08-21T07:13:19;2.13;;;1.90;;
10902;SDS011;5504;47.312;11.060;2022-08-21T07:15:45;1.77;;;1.65;;
10902;SDS011;5504;47.312;11.060;2022-08-21T07:18:11;1.98;;;1.40;;
10902;SDS011;5504;47.312;11.060;2022-08-21T07:20:38;2.92;;;1.85;;
10902;SDS011;5504;47.312;11.060;2022-08-21T07:23:07;1.58;;;1.48;;
10902;SDS011;5504;47.312;11.060;2022-08-21T07:25:36;3.28;;;1.63;;
10902;SDS011;5504;47.312;11.060;2022-08-21T07:28:02;1.48;;;1.38;;
10902;SDS011;5504;47.312;11.060;2022-08-21T07:30:28;2.15;;;1.50;;
10902;SDS011;5504;47.312;11.060;2022-08-21T07:32:54;2.47;;;1.30;;
10902;SDS011;5504;47.312;11.060;2022-08-21T07:35:20;1.42;;;1.33;;
10902;SDS011;5504;47.312;11.060;2022-08-21T07:37:46;1.63;;;1.52;;
10902;SDS011;5504;47.312;11.060;2022-08-21T07:40:12;1.55;;;1.45;;
10902;SDS011;5504;47.312;11.060;2022-08-21T07:42:39;2.70;;;1.42;;
10902;SDS011;5504;47.312;11.060;2022-08-21T07:45:09;1.88;;;1.60;;
10902;SDS011;5504;47.312;11.060;2022-08-21T07:47:36;2.58;;;1.75;;
10902;SDS011;5504;47.312;11.060;2022-08-21T07:50:02;1.92;;;1.48;;
10902;SDS011;5504;47.312;11.060;2022-08-21T07:52:28;3.15;;;2.20;;
10902;SDS011;5504;47.312;11.060;2022-08-21T07:54:53;1.70;;;1.60;;
10902;SDS011;5504;47.312;11.060;2022-08-21T07:57:20;3.03;;;1.50;;
10902;SDS011;5504;47.312;11.060;2022-08-21T07:59:45;1.60;;;1.50;;
10902;SDS011;5504;47.312;11.060;2022-08-21T08:02:21;1.70;;;1.60;;
10902;SDS011;5504;47.312;11.060;2022-08-21T08:04:47;1.88;;;1.77;;
10902;SDS011;5504;47.312;11.060;2022-08-21T08:07:13;1.88;;;1.70;;
10902;SDS011;5504;47.312;11.060;2022-08-21T08:09:39;1.65;;;1.55;;
10902;SDS011;5504;47.312;11.060;2022-08-21T08:12:05;1.73;;;1.60;;
10902;SDS011;5504;47.312;11.060;2022-08-21T08:14:30;2.05;;;1.92;;
10902;SDS011;5504;47.312;11.060;2022-08-21T08:16:57;1.60;;;1.50;;
10902;SDS011;5504;47.312;11.060;2022-08-21T08:19:22;1.40;;;1.30;;
10902;SDS011;5504;47.312;11.060;2022-08-21T08:21:48;1.90;;;1.70;;
10902;SDS011;5504;47.312;11.060;2022-08-21T08:24:14;1.35;;;1.25;;
10902;SDS011;5504;47.312;11.060;2022-08-21T08:26:40;1.30;;;1.30;;
10902;SDS011;5504;47.312;11.060;2022-08-21T08:29:05;1.42;;;1.33;;
10902;SDS011;5504;47.312;11.060;2022-08-21T08:31:31;1.60;;;1.50;;
10902;SDS011;5504;47.312;11.060;2022-08-21T08:33:57;2.08;;;1.40;;
10902;SDS011;5504;47.312;11.060;2022-08-21T08:36:30;1.55;;;1.45;;
10902;SDS011;5504;47.312;11.060;2022-08-21T08:38:58;2.90;;;1.70;;
10902;SDS011;5504;47.312;11.060;2022-08-21T08:41:27;1.60;;;1.50;;
10902;SDS011;5504;47.312;11.060;2022-08-21T08:43:56;1.60;;;1.50;;
10902;SDS011;5504;47.312;11.060;2022-08-21T08:46:39;1.90;;;1.42;;
10902;SDS011;5504;47.312;11.060;2022-08-21T08:51:57;1.60;;;1.50;;
10902;SDS011;5504;47.312;11.060;2022-08-21T08:57:03;1.30;;;1.20;;
10902;SDS011;5504;47.312;11.060;2022-08-21T08:59:39;1.50;;;1.40;;
10902;SDS011;5504;47.312;11.060;2022-08-21T09:02:06;1.50;;;1.40;;
10902;SDS011;5504;47.312;11.060;2022-08-21T09:04:35;1.83;;;1.33;;
10902;SDS011;5504;47.312;11.060;2022-08-21T09:07:05;2.05;;;1.40;;
10902;SDS011;5504;47.312;11.060;2022-08-21T09:15:57;1.60;;;1.50;;
10902;SDS011;5504;47.312;11.060;2022-08-21T09:21:52;2.17;;;1.30;;
10902;SDS011;5504;47.312;11.060;2022-08-21T09:27:20;1.52;;;1.42;;
10902;SDS011;5504;47.312;11.060;2022-08-21T09:29:48;1.50;;;1.40;;
10902;SDS011;5504;47.312;11.060;2022-08-21T09:37:35;2.80;;;1.45;;
10902;SDS011;5504;47.312;11.060;2022-08-21T09:45:26;1.73;;;1.63;;
10902;SDS011;5504;47.312;11.060;2022-08-21T09:47:52;2.17;;;1.40;;
10902;SDS011;5504;47.312;11.060;2022-08-21T09:50:23;1.42;;;1.33;;
10902;SDS011;5504;47.312;11.060;2022-08-21T09:52:54;2.42;;;1.50;;
10902;SDS011;5504;47.312;11.060;2022-08-21T09:58:29;1.55;;;1.45;;
10902;SDS011;5504;47.312;11.060;2022-08-21T10:01:00;1.30;;;1.20;;
10902;SDS011;5504;47.312;11.060;2022-08-21T10:03:26;1.40;;;1.30;;
10902;SDS011;5504;47.312;11.060;2022-08-21T10:05:55;1.58;;;1.48;;
10902;SDS011;5504;47.312;11.060;2022-08-21T10:08:24;1.58;;;1.48;;
10902;SDS011;5504;47.312;11.060;2022-08-21T10:10:54;1.95;;;1.40;;
10902;SDS011;5504;47.312;11.060;2022-08-21T10:13:29;1.40;;;1.30;;
10902;SDS011;5504;47.312;11.060;2022-08-21T10:34:45;1.30;;;1.20;;
10902;SDS011;5504;47.312;11.060;2022-08-21T10:42:49;0.93;;;0.93;;
10902;SDS011;5504;47.312;11.060;2022-08-21T10:48:08;1.20;;;1.10;;
10902;SDS011;5504;47.312;11.060;2022-08-21T10:56:23;1.00;;;0.90;;
10902;SDS011;5504;47.312;11.060;2022-08-21T11:04:36;1.00;;;0.90;;
10902;SDS011;5504;47.312;11.060;2022-08-21T11:07:16;0.80;;;0.80;;
10902;SDS011;5504;47.312;11.060;2022-08-21T11:10:10;0.60;;;0.60;;
10902;SDS011;5504;47.312;11.060;2022-08-21T11:15:17;0.70;;;0.70;;
10902;SDS011;5504;47.312;11.060;2022-08-21T11:23:13;1.30;;;0.73;;
10902;SDS011;5504;47.312;11.060;2022-08-21T11:25:47;0.60;;;0.60;;
10902;SDS011;5504;47.312;11.060;2022-08-21T11:28:19;0.60;;;0.60;;
10902;SDS011;5504;47.312;11.060;2022-08-21T11:31:13;0.60;;;0.60;;
10902;SDS011;5504;47.312;11.060;2022-08-21T11:39:38;0.55;;;0.55;;
10902;SDS011;5504;47.312;11.060;2022-08-21T11:50:28;0.60;;;0.60;;
10902;SDS011;5504;47.312;11.060;2022-08-21T11:55:52;0.60;;;0.60;;
10902;SDS011;5504;47.312;11.060;2022-08-21T11:58:40;0.50;;;0.50;;
10902;SDS011;5504;47.312;11.060;2022-08-21T12:01:11;1.35;;;0.60;;
10902;SDS011;5504;47.312;11.060;2022-08-21T12:04:01;0.60;;;0.57;;
10902;SDS011;5504;47.312;11.060;2022-08-21T12:06:31;0.68;;;0.68;;
10902;SDS011;5504;47.312;11.060;2022-08-21T12:09:03;0.57;;;0.57;;
10902;SDS011;5504;47.312;11.060;2022-08-21T12:12:05;0.50;;;0.50;;
10902;SDS011;5504;47.312;11.060;2022-08-21T12:14:42;0.65;;;0.65;;
10902;SDS011;5504;47.312;11.060;2022-08-21T12:17:22;0.65;;;0.65;;
10902;SDS011;5504;47.312;11.060;2022-08-21T12:20:57;0.60;;;0.60;;
10902;SDS011;5504;47.312;11.060;2022-08-21T12:25:40;0.63;;;0.63;;
10902;SDS011;5504;47.312;11.060;2022-08-21T12:28:27;0.60;;;0.60;;
10902;SDS011;5504;47.312;11.060;2022-08-21T12:30:55;0.60;;;0.60;;
10902;SDS011;5504;47.312;11.060;2022-08-21T12:33:22;0.65;;;0.65;;
10902;SDS011;5504;47.312;11.060;2022-08-21T12:36:02;0.73;;;0.70;;
10902;SDS011;5504;47.312;11.060;2022-08-21T12:38:51;0.60;;;0.60;;
10902;SDS011;5504;47.312;11.060;2022-08-21T12:44:08;0.60;;;0.60;;
10902;SDS011;5504;47.312;11.060;2022-08-21T12:46:39;0.70;;;0.70;;
10902;SDS011;5504;47.312;11.060;2022-08-21T12:49:18;1.95;;;0.77;;
10902;SDS011;5504;47.312;11.060;2022-08-21T12:52:00;0.60;;;0.60;;
10902;SDS011;5504;47.312;11.060;2022-08-21T12:54:40;0.60;;;0.60;;
10902;SDS011;5504;47.312;11.060;2022-08-21T12:57:07;1.10;;;0.80;;
10902;SDS011;5504;47.312;11.060;2022-08-21T12:59:41;0.60;;;0.60;;
10902;SDS011;5504;47.312;11.060;2022-08-21T13:02:18;0.70;;;0.70;;
10902;SDS011;5504;47.312;11.060;2022-08-21T13:04:46;0.70;;;0.70;;
10902;SDS011;5504;47.312;11.060;2022-08-21T13:07:15;1.23;;;0.80;;
10902;SDS011;5504;47.312;11.060;2022-08-21T13:09:48;0.70;;;0.70;;
10902;SDS011;5504;47.312;11.060;2022-08-21T13:12:17;0.82;;;0.60;;
10902;SDS011;5504;47.312;11.060;2022-08-21T13:14:46;1.30;;;0.68;;
10902;SDS011;5504;47.312;11.060;2022-08-21T13:17:21;1.13;;;0.70;;
10902;SDS011;5504;47.312;11.060;2022-08-21T13:19:52;0.80;;;0.80;;
10902;SDS011;5504;47.312;11.060;2022-08-21T13:22:20;0.75;;;0.70;;
10902;SDS011;5504;47.312;11.060;2022-08-21T13:24:46;0.60;;;0.60;;
10902;SDS011;5504;47.312;11.060;2022-08-21T13:27:22;0.70;;;0.70;;
10902;SDS011;5504;47.312;11.060;2022-08-21T13:30:03;0.80;;;0.80;;
10902;SDS011;5504;47.312;11.060;2022-08-21T13:32:44;0.88;;;0.77;;
10902;SDS011;5504;47.312;11.060;2022-08-21T13:35:21;1.15;;;0.80;;
10902;SDS011;5504;47.312;11.060;2022-08-21T13:37:50;0.80;;;0.80;;
10902;SDS011;5504;47.312;11.060;2022-08-21T13:40:19;0.70;;;0.70;;
10902;SDS011;5504;47.312;11.060;2022-08-21T13:42:49;1.25;;;0.80;;
10902;SDS011;5504;47.312;11.060;2022-08-21T13:45:17;0.75;;;0.70;;
10902;SDS011;5504;47.312;11.060;2022-08-21T13:47:47;0.70;;;0.70;;
10902;SDS011;5504;47.312;11.060;2022-08-21T13:50:14;0.70;;;0.70;;
10902;SDS011;5504;47.312;11.060;2022-08-21T13:53:20;0.80;;;0.80;;
10902;SDS011;5504;47.312;11.060;2022-08-21T13:55:54;0.77;;;0.70;;
10902;SDS011;5504;47.312;11.060;2022-08-21T13:58:54;1.50;;;0.90;;
10902;SDS011;5504;47.312;11.060;2022-08-21T14:01:17;1.08;;;0.70;;
10902;SDS011;5504;47.312;11.060;2022-08-21T14:03:46;0.80;;;0.80;;
10902;SDS011;5504;47.312;11.060;2022-08-21T14:06:19;0.80;;;0.70;;
10902;SDS011;5504;47.312;11.060;2022-08-21T14:08:58;1.15;;;0.88;;
10902;SDS011;5504;47.312;11.060;2022-08-21T14:11:47;0.70;;;0.70;;
10902;SDS011;5504;47.312;11.060;2022-08-21T14:14:24;0.85;;;0.85;;
10902;SDS011;5504;47.312;11.060;2022-08-21T14:17:02;0.80;;;0.80;;
10902;SDS011;5504;47.312;11.060;2022-08-21T14:22:22;0.80;;;0.80;;
10902;SDS011;5504;47.312;11.060;2022-08-21T14:25:01;0.80;;;0.80;;
10902;SDS011;5504;47.312;11.060;2022-08-21T14:27:28;0.95;;;0.85;;
10902;SDS011;5504;47.312;11.060;2022-08-21T14:29:59;0.80;;;0.80;;
10902;SDS011;5504;47.312;11.060;2022-08-21T14:32:38;0.70;;;0.70;;
10902;SDS011;5504;47.312;11.060;2022-08-21T14:35:06;0.80;;;0.80;;
10902;SDS011;5504;47.312;11.060;2022-08-21T14:37:32;0.90;;;0.90;;
10902;SDS011;5504;47.312;11.060;2022-08-21T14:39:58;0.70;;;0.70;;
10902;SDS011;5504;47.312;11.060;2022-08-21T14:42:23;1.05;;;0.90;;
10902;SDS011;5504;47.312;11.060;2022-08-21T14:44:50;1.00;;;1.00;;
10902;SDS011;5504;47.312;11.060;2022-08-21T14:47:16;0.90;;;0.90;;
10902;SDS011;5504;47.312;11.060;2022-08-21T14:49:42;1.15;;;0.90;;
10902;SDS011;5504;47.312;11.060;2022-08-21T14:52:08;0.82;;;0.80;;
10902;SDS011;5504;47.312;11.060;2022-08-21T14:54:34;1.65;;;0.75;;
10902;SDS011;5504;47.312;11.060;2022-08-21T14:57:02;1.63;;;1.13;;
10902;SDS011;5504;47.312;11.060;2022-08-21T14:59:30;1.10;;;1.00;;
10902;SDS011;5504;47.312;11.060;2022-08-21T15:01:58;0.70;;;0.70;;
10902;SDS011;5504;47.312;11.060;2022-08-21T15:04:24;0.80;;;0.80;;
10902;SDS011;5504;47.312;11.060;2022-08-21T15:06:50;0.90;;;0.88;;
10902;SDS011;5504;47.312;11.060;2022-08-21T15:09:15;1.70;;;0.90;;
10902;SDS011;5504;47.312;11.060;2022-08-21T15:11:41;1.52;;;1.10;;
10902;SDS011;5504;47.312;11.060;2022-08-21T15:14:07;1.30;;;1.20;;
10902;SDS011;5504;47.312;11.060;2022-08-21T15:16:39;1.50;;;1.40;;
10902;SDS011;5504;47.312;11.060;2022-08-21T15:19:05;1.00;;;1.00;;
10902;SDS011;5504;47.312;11.060;2022-08-21T15:21:31;1.50;;;1.40;;
10902;SDS011;5504;47.312;11.060;2022-08-21T15:23:56;1.77;;;1.17;;
10902;SDS011;5504;47.312;11.060;2022-08-21T15:26:22;0.80;;;0.80;;
10902;SDS011;5504;47.312;11.060;2022-08-21T15:28:48;1.10;;;1.00;;
10902;SDS011;5504;47.312;11.060;2022-08-21T15:31:14;1.25;;;1.15;;
10902;SDS011;5504;47.312;11.060;2022-08-21T15:33:40;0.90;;;0.90;;
10902;SDS011;5504;47.312;11.060;2022-08-21T15:36:06;1.67;;;0.70;;
10902;SDS011;5504;47.312;11.060;2022-08-21T15:38:32;1.10;;;1.00;;
10902;SDS011;5504;47.312;11.060;2022-08-21T15:40:57;1.00;;;0.93;;
10902;SDS011;5504;47.312;11.060;2022-08-21T15:45:49;1.30;;;1.08;;
10902;SDS011;5504;47.312;11.060;2022-08-21T15:48:15;1.33;;;1.20;;
10902;SDS011;5504;47.312;11.060;2022-08-21T15:50:49;1.27;;;1.17;;
10902;SDS011;5504;47.312;11.060;2022-08-21T15:53:15;1.13;;;1.00;;
10902;SDS011;5504;47.312;11.060;2022-08-21T15:55:41;1.23;;;1.00;;
10902;SDS011;5504;47.312;11.060;2022-08-21T15:58:14;1.42;;;0.90;;
10902;SDS011;5504;47.312;11.060;2022-08-21T16:00:41;0.80;;;0.80;;
10902;SDS011;5504;47.312;11.060;2022-08-21T16:03:09;1.20;;;1.00;;
10902;SDS011;5504;47.312;11.060;2022-08-21T16:05:40;1.58;;;1.00;;
10902;SDS011;5504;47.312;11.060;2022-08-21T16:08:07;1.38;;;1.10;;
10902;SDS011;5504;47.312;11.060;2022-08-21T16:10:35;1.30;;;1.00;;
10902;SDS011;5504;47.312;11.060;2022-08-21T16:13:02;1.80;;;1.02;;
10902;SDS011;5504;47.312;11.060;2022-08-21T16:15:29;1.98;;;1.10;;
10902;SDS011;5504;47.312;11.060;2022-08-21T16:17:55;1.88;;;1.00;;
10902;SDS011;5504;47.312;11.060;2022-08-21T16:20:25;2.75;;;1.35;;
10902;SDS011;5504;47.312;11.060;2022-08-21T16:22:53;1.17;;;1.08;;
10902;SDS011;5504;47.312;11.060;2022-08-21T16:25:21;1.33;;;1.10;;
10902;SDS011;5504;47.312;11.060;2022-08-21T16:27:51;1.33;;;1.20;;
10902;SDS011;5504;47.312;11.060;2022-08-21T16:30:21;1.23;;;1.02;;
10902;SDS011;5504;47.312;11.060;2022-08-21T16:32:47;1.50;;;1.27;;
10902;SDS011;5504;47.312;11.060;2022-08-21T16:35:14;1.52;;;1.20;;
10902;SDS011;5504;47.312;11.060;2022-08-21T16:37:43;1.15;;;1.00;;
10902;SDS011;5504;47.312;11.060;2022-08-21T16:40:09;2.22;;;1.30;;
10902;SDS011;5504;47.312;11.060;2022-08-21T16:42:36;0.95;;;0.90;;
10902;SDS011;5504;47.312;11.060;2022-08-21T16:45:05;1.13;;;1.02;;
10902;SDS011;5504;47.312;11.060;2022-08-21T16:47:35;1.73;;;1.15;;
10902;SDS011;5504;47.312;11.060;2022-08-21T16:50:01;1.20;;;1.10;;